Time;durP1;ratioP1;P1;durP2;ratioP2;P2;SDS_P1;SDS_P2;PMS_P1;PMS_P2;Temp;Humidity;BMP_temperature;BMP_pressure;BME280_temperature;BME280_humidity;BME280_pressure;Samples;Min_cycle;Max_cycle;Signal;HPM_P1;HPM_P2
2023/06/09 00:00:31;;;;;;;11.32;8.65;;;;;;;16.81;72.68;151507.13;5058113;28;20313;-71
2023/06/09 00:02:57;;;;;;;12.00;8.38;;;;;;;16.79;72.54;151503.28;5065108;28;20025;-72
2023/06/09 00:05:25;;;;;;;13.88;8.55;;;;;;;16.82;72.73;151509.72;5064919;28;20285;-71
2023/06/09 00:07:53;;;;;;;13.80;7.88;;;;;;;16.79;72.53;151503.28;5064999;28;20037;-71
2023/06/09 00:10:19;;;;;;;11.20;7.95;;;;;;;16.75;73.03;151492.97;5065153;28;20033;-72
2023/06/09 00:12:47;;;;;;;10.25;7.95;;;;;;;16.73;73.38;151487.78;5065100;28;20071;-71
2023/06/09 00:15:14;;;;;;;9.80;7.85;;;;;;;16.74;73.07;151490.38;5063795;28;20035;-71
2023/06/09 00:17:41;;;;;;;11.55;6.90;;;;;;;16.77;73.07;151496.81;5064641;28;20289;-71
2023/06/09 00:20:08;;;;;;;12.20;7.57;;;;;;;16.74;72.95;151491.69;5065194;28;20040;-72
2023/06/09 00:22:43;;;;;;;19.30;7.95;;;;;;;16.78;72.60;151499.41;5065056;28;20052;-72
2023/06/09 00:25:13;;;;;;;13.60;7.55;;;;;;;16.72;73.45;151486.50;5065082;28;20139;-71
2023/06/09 00:27:39;;;;;;;13.93;7.90;;;;;;;16.70;72.77;151480.06;5066250;28;20029;-72
2023/06/09 00:30:07;;;;;;;11.88;7.38;;;;;;;16.68;73.81;151474.94;5065215;28;20326;-71
2023/06/09 00:32:33;;;;;;;11.77;7.57;;;;;;;16.70;72.89;151481.38;5064937;28;20062;-71
2023/06/09 00:34:58;;;;;;;19.23;7.68;;;;;;;16.62;73.46;151460.75;5063869;28;20067;-70
2023/06/09 00:37:24;;;;;;;11.70;7.15;;;;;;;16.66;73.73;151469.75;5064656;28;20024;-70
2023/06/09 00:39:50;;;;;;;12.98;7.60;;;;;;;16.65;73.83;151468.47;5064213;28;20328;-69
2023/06/09 00:42:15;;;;;;;12.23;8.15;;;;;;;16.66;73.48;151471.06;5064623;28;20055;-70
2023/06/09 00:44:41;;;;;;;15.27;7.68;;;;;;;16.66;73.34;151471.06;5064378;28;20024;-69
2023/06/09 00:47:09;;;;;;;15.93;7.70;;;;;;;16.63;73.70;151462.03;5064091;28;20029;-69
2023/06/09 00:49:35;;;;;;;15.73;8.32;;;;;;;16.69;72.95;151477.53;5064543;28;20035;-69
2023/06/09 00:52:01;;;;;;;17.10;7.75;;;;;;;16.67;73.76;151472.34;5064120;28;20057;-69
2023/06/09 00:54:28;;;;;;;13.55;8.07;;;;;;;16.69;73.62;151478.78;5064126;28;20277;-70
2023/06/09 00:56:55;;;;;;;15.10;7.97;;;;;;;16.70;73.84;151481.38;5063650;28;20028;-69
2023/06/09 00:59:21;;;;;;;12.05;7.65;;;;;;;16.67;73.70;151472.34;5063998;28;20067;-70
2023/06/09 01:01:47;;;;;;;12.35;7.72;;;;;;;16.68;73.64;151476.19;5063738;28;20217;-70
2023/06/09 01:04:13;;;;;;;14.45;7.63;;;;;;;16.73;73.13;151487.78;5063662;28;20029;-71
2023/06/09 01:06:56;;;;;;;14.50;8.20;;;;;;;16.68;73.73;151474.94;5063623;28;20045;-71
2023/06/09 01:09:29;;;;;;;18.30;8.60;;;;;;;16.58;74.82;151449.19;5063813;28;20029;-68
2023/06/09 01:12:25;;;;;;;10.57;8.23;;;;;;;16.54;74.40;151441.41;5063088;28;20213;-69
2023/06/09 01:15:00;;;;;;;13.30;8.05;;;;;;;16.63;73.74;151463.34;5063259;28;20094;-69
2023/06/09 01:17:29;;;;;;;13.90;8.10;;;;;;;16.53;73.92;151438.88;5063406;28;20064;-69
2023/06/09 01:20:05;;;;;;;13.93;8.43;;;;;;;16.61;74.14;151456.91;5063705;28;20051;-69
2023/06/09 01:22:49;;;;;;;20.48;9.27;;;;;;;16.58;73.98;151450.44;5043909;28;20029;-70
2023/06/09 01:25:35;;;;;;;14.57;9.02;;;;;;;16.61;74.45;151456.91;5061421;28;20247;-71
2023/06/09 01:28:21;;;;;;;15.32;8.55;;;;;;;16.55;74.90;151442.72;5063402;28;20317;-71
2023/06/09 01:30:49;;;;;;;14.82;9.05;;;;;;;16.60;74.41;151455.56;5063414;28;20024;-70
2023/06/09 01:33:20;;;;;;;14.10;8.45;;;;;;;16.55;74.57;151444.00;5063797;28;20101;-70
2023/06/09 01:35:47;;;;;;;16.92;8.02;;;;;;;16.62;74.52;151460.75;5063135;28;20041;-71
2023/06/09 01:38:13;;;;;;;15.63;8.90;;;;;;;16.62;74.04;151459.50;5062130;28;20229;-70
2023/06/09 01:40:39;;;;;;;14.85;8.93;;;;;;;16.59;74.31;151451.72;5063278;28;20272;-69
2023/06/09 01:43:06;;;;;;;14.75;8.65;;;;;;;16.60;75.11;151454.31;5063255;28;20088;-70
2023/06/09 01:45:32;;;;;;;16.20;8.43;;;;;;;16.58;74.60;151450.44;5062904;28;20067;-70
2023/06/09 01:48:00;;;;;;;13.75;8.15;;;;;;;16.55;74.77;151442.72;5062193;28;20024;-70
2023/06/09 01:50:55;;;;;;;15.45;8.70;;;;;;;16.41;75.36;151407.94;5063479;28;20458;-71
2023/06/09 01:53:28;;;;;;;13.38;8.13;;;;;;;16.52;75.35;151436.28;5063096;28;20028;-70
2023/06/09 01:56:06;;;;;;;16.85;9.38;;;;;;;16.47;75.65;151422.09;5064603;28;20252;-70
2023/06/09 01:58:43;;;;;;;20.27;9.25;;;;;;;16.50;75.36;151431.16;5078716;28;20035;-69
2023/06/09 02:01:12;;;;;;;16.50;8.52;;;;;;;16.42;74.72;151409.22;5062688;28;20134;-71
2023/06/09 02:03:42;;;;;;;14.07;8.43;;;;;;;16.47;75.14;151423.38;5062644;28;20036;-70
2023/06/09 02:06:11;;;;;;;16.35;9.25;;;;;;;16.45;75.16;151418.25;5062673;28;20066;-71
2023/06/09 02:08:37;;;;;;;14.07;8.20;;;;;;;16.55;75.43;151442.72;5062914;28;20060;-70
2023/06/09 02:11:03;;;;;;;14.00;8.25;;;;;;;16.51;75.32;151433.69;5062886;28;20285;-70
2023/06/09 02:13:29;;;;;;;10.88;8.02;;;;;;;16.55;74.79;151442.72;5062975;28;20356;-71
2023/06/09 02:15:55;;;;;;;15.38;8.57;;;;;;;16.54;74.91;151441.41;5063209;28;20037;-70
2023/06/09 02:18:22;;;;;;;15.77;8.40;;;;;;;16.65;75.27;151467.22;5062623;28;20028;-70
2023/06/09 02:20:48;;;;;;;14.93;8.90;;;;;;;16.73;74.80;151487.78;5062496;28;20053;-70
2023/06/09 02:23:15;;;;;;;14.25;8.68;;;;;;;16.53;74.42;151437.56;5062877;28;20039;-71
2023/06/09 02:25:40;;;;;;;14.07;8.75;;;;;;;16.82;74.56;151509.72;5062505;28;20021;-70
2023/06/09 02:28:08;;;;;;;13.27;8.55;;;;;;;16.81;74.14;151507.13;5062552;28;20048;-70
2023/06/09 02:30:35;;;;;;;15.02;8.35;;;;;;;16.83;74.48;151512.28;5062728;28;20066;-71
2023/06/09 02:33:01;;;;;;;17.77;7.82;;;;;;;16.83;74.21;151512.28;5062520;28;20328;-70
2023/06/09 02:35:31;;;;;;;17.05;8.38;;;;;;;16.84;74.56;151514.84;5062507;28;20021;-71
2023/06/09 02:37:57;;;;;;;14.43;8.70;;;;;;;16.87;74.49;151523.91;5062268;28;20089;-70
2023/06/09 02:40:25;;;;;;;13.93;8.35;;;;;;;16.89;74.11;151527.81;5062617;28;20355;-70
2023/06/09 02:42:51;;;;;;;13.50;8.43;;;;;;;16.83;73.88;151513.59;5062286;28;20029;-70
2023/06/09 02:45:17;;;;;;;12.93;8.40;;;;;;;16.95;73.42;151543.25;5062573;28;20099;-71
2023/06/09 02:47:42;;;;;;;15.40;9.23;;;;;;;16.98;73.68;151550.97;5062289;28;20036;-70
2023/06/09 02:50:08;;;;;;;11.27;8.02;;;;;;;17.01;73.04;151557.44;5062413;28;20071;-70
2023/06/09 02:52:34;;;;;;;13.73;8.00;;;;;;;17.03;73.33;151562.56;5062597;28;20059;-69
2023/06/09 02:55:00;;;;;;;13.77;9.10;;;;;;;17.12;73.54;151585.78;5062120;28;20040;-69
2023/06/09 02:57:27;;;;;;;9.70;7.72;;;;;;;17.20;72.70;151605.09;5062320;28;20317;-69
2023/06/09 02:59:53;;;;;;;10.52;7.93;;;;;;;17.27;73.45;151623.13;5065127;28;20032;-69
2023/06/09 03:02:19;;;;;;;10.75;7.55;;;;;;;17.32;72.33;151636.03;5066457;28;20052;-69
2023/06/09 03:04:45;;;;;;;13.15;7.18;;;;;;;17.34;72.10;151641.19;5066373;28;20225;-69
2023/06/09 03:07:13;;;;;;;12.63;7.90;;;;;;;17.38;72.67;151651.50;5082277;28;20078;-70
2023/06/09 03:09:42;;;;;;;11.88;7.57;;;;;;;17.45;72.32;151667.00;5072780;28;20033;-70
2023/06/09 03:12:09;;;;;;;10.65;7.97;;;;;;;17.52;71.81;151685.03;5065621;28;20025;-71
2023/06/09 03:14:35;;;;;;;8.40;7.00;;;;;;;17.58;71.49;151700.47;5066115;28;20210;-71
2023/06/09 03:17:01;;;;;;;8.73;7.07;;;;;;;17.67;71.38;151723.72;5065847;28;20029;-71
2023/06/09 03:19:27;;;;;;;10.15;7.53;;;;;;;17.56;70.93;151696.63;5065629;28;20033;-70
2023/06/09 03:21:53;;;;;;;12.52;7.63;;;;;;;17.79;70.96;151753.34;5065498;28;20024;-70
2023/06/09 03:24:19;;;;;;;11.25;7.38;;;;;;;17.88;70.57;151775.25;5065630;28;20091;-71
2023/06/09 03:26:46;;;;;;;10.32;7.22;;;;;;;17.92;70.23;151786.91;5065634;28;20079;-69
2023/06/09 03:29:11;;;;;;;9.10;7.25;;;;;;;17.92;69.88;151786.91;5065614;28;20109;-69
2023/06/09 03:31:37;;;;;;;8.30;7.20;;;;;;;18.07;69.22;151823.00;5065468;28;20025;-71
2023/06/09 03:34:03;;;;;;;8.30;7.45;;;;;;;18.09;68.75;151828.19;5065411;28;20304;-70
2023/06/09 03:36:28;;;;;;;11.27;8.25;;;;;;;18.16;69.58;151844.97;5065431;28;20025;-70
2023/06/09 03:38:54;;;;;;;13.93;7.53;;;;;;;18.20;69.93;151855.25;5080188;28;20032;-71
2023/06/09 03:41:25;;;;;;;10.70;7.30;;;;;;;18.28;69.03;151875.88;5069336;28;20125;-70
2023/06/09 03:43:50;;;;;;;11.02;7.47;;;;;;;18.34;68.86;151891.38;5065211;28;20041;-70
2023/06/09 03:46:16;;;;;;;9.32;7.32;;;;;;;18.40;68.49;151906.84;5065354;28;20032;-70
2023/06/09 03:48:42;;;;;;;9.80;7.35;;;;;;;18.59;68.26;151954.56;5064918;28;20056;-70
2023/06/09 03:51:08;;;;;;;11.30;7.15;;;;;;;18.79;67.54;152004.88;5065239;28;20364;-69
2023/06/09 03:53:33;;;;;;;11.43;7.82;;;;;;;18.85;66.46;152017.78;5064988;28;20048;-69
2023/06/09 03:55:59;;;;;;;11.45;7.13;;;;;;;18.85;66.38;152017.78;5065067;28;20020;-72
2023/06/09 03:58:28;;;;;;;13.52;7.70;;;;;;;18.90;66.31;152030.75;5065271;28;20104;-72
2023/06/09 04:00:54;;;;;;;11.60;7.85;;;;;;;18.99;66.51;152053.97;5065158;28;20025;-68
2023/06/09 04:03:22;;;;;;;9.07;7.55;;;;;;;18.95;66.30;152044.94;5065273;28;20204;-67
2023/06/09 04:05:48;;;;;;;10.93;7.22;;;;;;;18.90;65.61;152030.75;5064754;28;20076;-67
2023/06/09 04:08:14;;;;;;;13.02;7.80;;;;;;;18.94;66.02;152041.03;5065272;28;20055;-69
2023/06/09 04:10:41;;;;;;;9.88;7.28;;;;;;;18.96;66.18;152047.50;5063703;28;20340;-67
2023/06/09 04:13:08;;;;;;;15.65;9.80;;;;;;;18.95;65.77;152043.63;5064729;28;20111;-68
2023/06/09 04:15:34;;;;;;;11.20;6.78;;;;;;;19.06;64.81;152072.03;5064679;28;20032;-67
2023/06/09 04:18:01;;;;;;;11.50;7.18;;;;;;;19.13;65.21;152090.09;5064563;28;20041;-67
2023/06/09 04:20:26;;;;;;;11.25;7.28;;;;;;;19.23;65.02;152114.59;5065049;28;20082;-66
2023/06/09 04:22:52;;;;;;;12.00;6.68;;;;;;;19.24;65.26;152117.19;5063526;28;20029;-67
2023/06/09 04:25:25;;;;;;;12.57;6.97;;;;;;;19.28;65.20;152127.53;5064545;28;20021;-66
2023/06/09 04:27:52;;;;;;;10.38;7.35;;;;;;;19.35;64.94;152144.28;5064503;28;20087;-67
2023/06/09 04:30:25;;;;;;;10.65;7.22;;;;;;;19.34;63.87;152140.41;5064182;28;20035;-69
2023/06/09 04:32:56;;;;;;;11.25;7.65;;;;;;;19.43;63.70;152164.94;5069359;28;20025;-68
2023/06/09 04:35:22;;;;;;;11.07;6.88;;;;;;;19.53;63.31;152189.47;5064812;28;20029;-68
2023/06/09 04:37:49;;;;;;;10.10;7.47;;;;;;;19.56;64.06;152197.19;5064350;28;20223;-68
2023/06/09 04:40:21;;;;;;;9.15;6.97;;;;;;;19.59;62.41;152204.94;5064503;28;20092;-68
2023/06/09 04:42:57;;;;;;;11.13;7.05;;;;;;;19.55;62.10;152194.59;5063660;28;20032;-67
2023/06/09 04:45:34;;;;;;;10.05;6.82;;;;;;;19.58;61.10;152201.06;5063833;28;20333;-67
2023/06/09 04:48:00;;;;;;;12.15;6.70;;;;;;;19.76;60.77;152246.28;5059105;28;20084;-68
2023/06/09 04:50:29;;;;;;;9.07;7.50;;;;;;;19.80;60.18;152257.94;5063365;28;20255;-67
2023/06/09 04:52:58;;;;;;;8.65;6.32;;;;;;;19.96;60.32;152296.66;5063647;28;20044;-67
2023/06/09 04:55:25;;;;;;;11.20;6.70;;;;;;;19.98;59.55;152303.13;5063488;28;20037;-67
2023/06/09 04:57:56;;;;;;;9.07;6.43;;;;;;;20.03;59.59;152314.75;5060959;28;20028;-69
2023/06/09 05:00:22;;;;;;;12.02;7.07;;;;;;;20.20;59.66;152356.09;5063727;28;20024;-69
2023/06/09 05:02:53;;;;;;;8.25;6.65;;;;;;;20.30;58.54;152383.19;5063575;28;20021;-68
2023/06/09 05:05:19;;;;;;;14.95;6.90;;;;;;;20.42;58.86;152412.91;5063200;28;20333;-68
2023/06/09 05:07:45;;;;;;;9.75;6.72;;;;;;;20.43;58.49;152415.47;5062079;28;20045;-70
2023/06/09 05:10:10;;;;;;;12.55;6.65;;;;;;;20.46;57.89;152423.19;5063239;28;20025;-69
2023/06/09 05:12:37;;;;;;;11.38;6.47;;;;;;;20.64;57.72;152467.16;5064090;28;20413;-68
2023/06/09 05:15:03;;;;;;;12.15;7.30;;;;;;;20.76;56.76;152496.91;5063282;28;20104;-69
2023/06/09 05:17:31;;;;;;;7.82;6.55;;;;;;;20.99;55.51;152556.34;5063849;28;20032;-68
2023/06/09 05:19:58;;;;;;;10.55;5.75;;;;;;;21.24;55.53;152617.09;5063776;28;20052;-70
2023/06/09 05:22:23;;;;;;;8.60;6.25;;;;;;;21.27;55.79;152624.81;5062431;28;20021;-69
2023/06/09 05:24:49;;;;;;;11.07;6.45;;;;;;;21.35;54.84;152645.50;5063720;28;20200;-68
2023/06/09 05:27:15;;;;;;;8.55;6.15;;;;;;;21.36;54.32;152648.06;5063363;28;20025;-69
2023/06/09 05:29:40;;;;;;;11.65;6.32;;;;;;;21.32;54.50;152637.72;5063434;28;20031;-69
2023/06/09 05:32:06;;;;;;;10.93;6.10;;;;;;;21.46;54.79;152673.94;5063494;28;20028;-68
2023/06/09 05:34:31;;;;;;;8.80;5.82;;;;;;;21.38;54.41;152653.25;5062472;28;20036;-68
2023/06/09 05:36:57;;;;;;;10.48;6.13;;;;;;;21.26;53.05;152622.22;5063185;28;20021;-69
2023/06/09 05:39:23;;;;;;;9.02;6.07;;;;;;;21.42;53.94;152663.59;5058941;28;20032;-68
2023/06/09 05:41:48;;;;;;;12.93;6.75;;;;;;;21.37;52.17;152650.66;5063182;28;20037;-70
2023/06/09 05:44:14;;;;;;;8.10;5.43;;;;;;;21.49;52.76;152680.38;5063198;28;20035;-68
2023/06/09 05:46:39;;;;;;;8.32;5.53;;;;;;;21.49;52.02;152680.38;5061505;28;20192;-68
2023/06/09 05:49:05;;;;;;;8.00;5.35;;;;;;;21.40;46.93;152657.13;5062553;28;20029;-69
2023/06/09 05:51:33;;;;;;;7.97;5.47;;;;;;;21.49;47.71;152680.38;5062968;28;20036;-68
2023/06/09 05:53:58;;;;;;;7.68;4.88;;;;;;;21.66;48.79;152724.41;5062671;28;20035;-68
2023/06/09 05:56:25;;;;;;;9.88;5.32;;;;;;;21.74;49.17;152742.50;5061659;28;20037;-69
2023/06/09 05:58:51;;;;;;;5.30;4.60;;;;;;;21.81;48.26;152760.59;5063046;28;20029;-69
2023/06/09 06:01:17;;;;;;;10.55;5.68;;;;;;;21.81;46.61;152761.88;5067331;28;20032;-69
2023/06/09 06:03:44;;;;;;;12.23;6.43;;;;;;;21.93;48.03;152790.31;5072013;28;20036;-70
2023/06/09 06:06:12;;;;;;;10.38;4.88;;;;;;;21.85;47.04;152772.22;5062819;28;20057;-68
2023/06/09 06:08:38;;;;;;;8.95;5.40;;;;;;;21.93;47.33;152790.31;5062892;28;20094;-66
2023/06/09 06:11:05;;;;;;;9.77;5.65;;;;;;;21.95;45.89;152795.47;5062716;28;20377;-68
2023/06/09 06:13:30;;;;;;;6.72;5.40;;;;;;;21.96;44.89;152799.38;5062882;28;20028;-68
2023/06/09 06:16:00;;;;;;;7.35;5.07;;;;;;;22.05;44.99;152822.63;5062721;28;20205;-67
2023/06/09 06:18:26;;;;;;;9.30;5.60;;;;;;;22.03;46.25;152816.16;5063014;28;20025;-67
2023/06/09 06:20:51;;;;;;;10.57;5.85;;;;;;;22.16;46.53;152849.81;5062706;28;20079;-67
2023/06/09 06:23:17;;;;;;;10.40;5.70;;;;;;;22.20;46.53;152860.16;5063011;28;20264;-69
2023/06/09 06:25:42;;;;;;;12.88;5.47;;;;;;;22.20;46.53;152860.16;5066320;28;20029;-69
2023/06/09 06:28:09;;;;;;;5.72;5.00;;;;;;;22.23;45.36;152866.59;5068910;28;20151;-68
2023/06/09 06:30:37;;;;;;;10.00;5.45;;;;;;;22.15;44.35;152847.22;5062552;28;20036;-69
2023/06/09 06:33:03;;;;;;;6.07;5.45;;;;;;;22.28;45.02;152878.25;5060821;28;20345;-67
2023/06/09 06:35:29;;;;;;;16.60;5.80;;;;;;;22.19;44.61;152857.56;5062513;28;20102;-68
2023/06/09 06:37:55;;;;;;;12.10;5.78;;;;;;;22.28;44.81;152878.25;5069420;28;20025;-67
2023/06/09 06:40:22;;;;;;;10.13;4.85;;;;;;;22.30;44.64;152884.69;5074682;28;20037;-67
2023/06/09 06:42:47;;;;;;;7.28;5.13;;;;;;;22.45;45.26;152922.25;5062732;28;20234;-67
2023/06/09 06:45:14;;;;;;;7.78;5.13;;;;;;;22.56;45.92;152950.72;5062471;28;20036;-68
2023/06/09 06:47:45;;;;;;;10.50;5.10;;;;;;;22.61;44.06;152961.06;5058085;28;20029;-67
2023/06/09 06:50:11;;;;;;;11.00;5.40;;;;;;;22.52;42.42;152940.38;5042688;28;20272;-66
2023/06/09 06:52:37;;;;;;;12.98;4.78;;;;;;;22.61;42.59;152961.06;5059957;28;20070;-68
2023/06/09 06:55:06;;;;;;;8.77;4.95;;;;;;;22.70;40.52;152984.31;5062229;28;20092;-68
2023/06/09 06:57:31;;;;;;;8.27;5.55;;;;;;;22.83;41.22;153016.66;5062238;28;20092;-67
2023/06/09 06:59:57;;;;;;;8.50;4.88;;;;;;;22.89;40.99;153033.50;5061172;28;20020;-66
2023/06/09 07:02:23;;;;;;;12.25;5.78;;;;;;;22.91;40.95;153038.66;5062672;28;20031;-71
2023/06/09 07:04:49;;;;;;;10.43;5.68;;;;;;;22.84;40.43;153019.28;5062572;28;20052;-68
2023/06/09 07:07:15;;;;;;;11.05;5.68;;;;;;;22.87;38.40;153027.03;5063993;28;20053;-66
2023/06/09 07:09:40;;;;;;;11.60;6.90;;;;;;;;;;5062356;28;20341;-71
2023/06/09 07:12:07;;;;;;;11.27;5.60;;;;;;;22.95;39.16;153047.72;5061977;28;20060;-68
2023/06/09 07:14:34;;;;;;;8.80;5.80;;;;;;;23.07;39.21;153078.78;5061028;28;20115;-67
2023/06/09 07:16:59;;;;;;;8.85;5.78;;;;;;;23.06;39.26;153076.19;5060696;28;20032;-68
2023/06/09 07:19:25;;;;;;;9.45;5.70;;;;;;;22.89;37.93;153032.22;5062497;28;20051;-68
2023/06/09 07:21:50;;;;;;;9.02;4.78;;;;;;;23.08;38.78;153080.06;5062207;28;20329;-68
2023/06/09 07:24:16;;;;;;;8.65;5.22;;;;;;;23.21;37.75;153113.75;5061391;28;20021;-67
2023/06/09 07:26:42;;;;;;;7.30;5.13;;;;;;;23.14;35.29;153094.34;5062192;28;20028;-68
2023/06/09 07:29:08;;;;;;;8.98;5.20;;;;;;;23.02;33.27;153065.84;5062306;28;20175;-67
2023/06/09 07:31:33;;;;;;;7.22;5.25;;;;;;;23.23;35.58;153117.63;5062306;28;20025;-68
2023/06/09 07:33:58;;;;;;;7.80;5.10;;;;;;;23.32;35.46;153139.66;5062057;28;20032;-67
2023/06/09 07:36:24;;;;;;;8.68;4.65;;;;;;;23.45;34.30;153173.28;5062198;28;20217;-68
2023/06/09 07:38:50;;;;;;;9.05;4.85;;;;;;;23.48;34.57;153181.03;5061738;28;20029;-67
2023/06/09 07:41:15;;;;;;;7.95;5.05;;;;;;;23.52;34.69;153190.13;5062093;28;20025;-68
2023/06/09 07:43:43;;;;;;;5.68;4.75;;;;;;;23.42;31.38;153166.81;5062060;28;20124;-67
2023/06/09 07:46:10;;;;;;;6.55;5.18;;;;;;;23.48;32.90;153179.75;5069062;28;20099;-68
2023/06/09 07:48:37;;;;;;;9.00;5.43;;;;;;;23.56;32.73;153201.75;5067788;28;20036;-67
2023/06/09 07:51:03;;;;;;;6.63;5.60;;;;;;;23.46;31.36;153175.88;5050313;28;20128;-66
2023/06/09 07:53:29;;;;;;;5.68;4.72;;;;;;;23.18;30.21;153104.72;5065493;28;20024;-68
2023/06/09 07:55:54;;;;;;;9.93;6.07;;;;;;;23.40;32.04;153161.66;5065659;28;20032;-66
2023/06/09 07:58:20;;;;;;;10.23;5.35;;;;;;;23.36;31.26;153151.28;5064874;28;20229;-68
2023/06/09 08:00:46;;;;;;;6.47;4.82;;;;;;;23.40;30.49;153161.66;5065424;28;20040;-67
2023/06/09 08:03:11;;;;;;;6.03;4.93;;;;;;;23.42;30.68;153165.53;5064051;28;20028;-67
2023/06/09 08:05:37;;;;;;;8.15;5.22;;;;;;;23.56;31.57;153201.75;5064841;28;20325;-66
2023/06/09 08:08:03;;;;;;;9.90;5.10;;;;;;;23.50;29.47;153184.91;5065203;28;20032;-68
2023/06/09 08:10:28;;;;;;;7.53;5.43;;;;;;;23.69;30.92;153232.84;5065340;28;20052;-67
2023/06/09 08:12:54;;;;;;;11.27;5.80;;;;;;;23.73;29.00;153244.47;5065186;28;20101;-68
2023/06/09 08:15:20;;;;;;;7.72;4.88;;;;;;;23.77;28.28;153254.84;5065262;28;20028;-68
2023/06/09 08:17:46;;;;;;;7.10;5.38;;;;;;;23.73;28.78;153243.19;5064915;28;20067;-67
2023/06/09 08:20:12;;;;;;;7.47;5.10;;;;;;;23.88;29.97;153282.03;5065077;28;20236;-68
2023/06/09 08:22:37;;;;;;;8.88;5.20;;;;;;;24.00;29.65;153310.53;5064835;28;20025;-66
2023/06/09 08:25:03;;;;;;;7.30;5.05;;;;;;;24.04;29.80;153320.88;5064901;28;20033;-67
2023/06/09 08:27:29;;;;;;;11.75;5.57;;;;;;;24.19;30.28;153359.72;5065067;28;20116;-66
2023/06/09 08:29:55;;;;;;;7.35;5.28;;;;;;;24.21;29.71;153364.88;5064636;28;20341;-68
2023/06/09 08:32:21;;;;;;;7.38;5.30;;;;;;;23.83;28.74;153269.06;5064822;28;20305;-69
2023/06/09 08:34:46;;;;;;;8.25;5.00;;;;;;;24.10;29.20;153336.44;5060278;28;20091;-68
2023/06/09 08:37:12;;;;;;;8.65;5.18;;;;;;;24.28;30.87;153383.06;5057904;28;20036;-68
2023/06/09 08:39:38;;;;;;;10.63;5.30;;;;;;;24.21;28.39;153363.59;5064551;28;20079;-69
2023/06/09 08:42:09;;;;;;;8.38;5.07;;;;;;;23.99;27.99;153307.97;5064484;28;20033;-69
2023/06/09 08:44:38;;;;;;;6.80;5.63;;;;;;;24.09;28.34;153335.13;5064900;28;20046;-69
2023/06/09 08:47:06;;;;;;;9.15;5.50;;;;;;;24.29;29.03;153385.63;5079894;28;20048;-71
2023/06/09 08:49:32;;;;;;;7.18;5.47;;;;;;;24.41;28.98;153414.09;5068373;28;20029;-69
2023/06/09 08:51:58;;;;;;;9.63;4.88;;;;;;;24.55;29.00;153449.09;5064215;28;20067;-69
2023/06/09 08:54:25;;;;;;;6.75;5.20;;;;;;;24.52;29.66;153441.31;5064511;28;20024;-69
2023/06/09 08:56:52;;;;;;;6.97;5.50;;;;;;;24.49;28.16;153433.56;5064096;28;20063;-69
2023/06/09 08:59:20;;;;;;;5.88;4.63;;;;;;;24.61;28.42;153464.66;5064761;28;20032;-69
2023/06/09 09:01:49;;;;;;;6.32;4.60;;;;;;;24.36;28.17;153402.47;5064438;28;20035;-68
2023/06/09 09:04:16;;;;;;;7.65;4.85;;;;;;;24.37;27.91;153403.75;5064091;28;20068;-68
2023/06/09 09:06:41;;;;;;;9.45;4.97;;;;;;;24.52;28.16;153442.59;5067012;28;20048;-67
2023/06/09 09:09:07;;;;;;;9.50;5.35;;;;;;;24.45;28.16;153425.75;5064040;28;20028;-67
2023/06/09 09:11:33;;;;;;;8.43;5.03;;;;;;;24.59;27.90;153460.72;5063871;28;20036;-67
2023/06/09 09:14:08;;;;;;;8.07;5.55;;;;;;;24.62;27.89;153467.25;5064107;28;20033;-67
2023/06/09 09:16:33;;;;;;;8.52;5.45;;;;;;;24.85;29.47;153524.25;5063930;28;20092;-67
2023/06/09 09:19:00;;;;;;;7.25;6.03;;;;;;;24.81;29.35;153515.16;5063829;28;20086;-68
2023/06/09 09:21:26;;;;;;;12.57;5.38;;;;;;;24.60;28.19;153463.38;5064039;28;20087;-68
2023/06/09 09:23:56;;;;;;;9.50;5.50;;;;;;;24.88;29.42;153533.28;5063846;28;20206;-68
2023/06/09 09:26:29;;;;;;;8.68;5.30;;;;;;;24.89;28.81;153534.63;5063934;28;20088;-68
2023/06/09 09:28:58;;;;;;;9.48;5.28;;;;;;;24.98;29.21;153557.91;5063496;28;20029;-68
2023/06/09 09:31:32;;;;;;;8.43;5.38;;;;;;;25.06;29.62;153577.38;5063403;28;20028;-69
2023/06/09 09:33:59;;;;;;;13.57;5.72;;;;;;;24.74;28.50;153498.34;5063302;28;20016;-68
2023/06/09 09:36:26;;;;;;;8.70;5.30;;;;;;;24.55;28.84;153450.34;5059537;28;20507;-68
2023/06/09 09:38:55;;;;;;;9.88;5.25;;;;;;;24.77;29.22;153506.13;5063284;28;20044;-68
2023/06/09 09:41:20;;;;;;;7.70;5.10;;;;;;;24.84;29.92;153521.66;5063290;28;20016;-69
2023/06/09 09:43:46;;;;;;;6.30;5.45;;;;;;;24.75;28.21;153499.63;5060133;28;20078;-68
2023/06/09 09:46:12;;;;;;;8.50;5.55;;;;;;;24.98;30.06;153559.25;5063000;28;20052;-68
2023/06/09 09:48:38;;;;;;;5.63;4.97;;;;;;;25.09;29.71;153585.13;5061872;28;20392;-68
2023/06/09 09:51:05;;;;;;;6.22;5.07;;;;;;;25.10;29.33;153587.75;5058649;28;20036;-68
2023/06/09 09:53:31;;;;;;;7.55;5.30;;;;;;;25.16;29.14;153603.28;5043380;28;20079;-69
2023/06/09 09:56:00;;;;;;;7.25;4.95;;;;;;;25.27;30.36;153630.50;5061864;28;20025;-69
2023/06/09 09:58:36;;;;;;;8.80;6.70;;;;;;;25.11;29.64;153590.28;5063187;28;20033;-68
2023/06/09 10:01:04;;;;;;;7.70;5.63;;;;;;;25.27;29.98;153631.78;5062491;28;20372;-70
2023/06/09 10:03:31;;;;;;;7.35;5.25;;;;;;;25.29;29.12;153636.94;5062483;28;20029;-70
2023/06/09 10:06:01;;;;;;;5.05;4.45;;;;;;;24.79;28.73;153510.00;5063081;28;20068;-69
2023/06/09 10:08:28;;;;;;;7.47;5.20;;;;;;;24.93;28.65;153546.25;5062159;28;20459;-69
2023/06/09 10:11:00;;;;;;;7.32;4.85;;;;;;;25.08;29.36;153582.53;5062651;28;20041;-68
2023/06/09 10:13:26;;;;;;;11.05;5.53;;;;;;;25.09;28.68;153585.13;5062963;28;20025;-69
2023/06/09 10:15:55;;;;;;;8.80;4.95;;;;;;;25.04;29.27;153573.50;5058296;28;20033;-67
2023/06/09 10:18:22;;;;;;;6.15;4.93;;;;;;;24.93;27.88;153546.25;5048744;28;20066;-68
2023/06/09 10:20:50;;;;;;;8.52;5.05;;;;;;;24.89;28.65;153534.63;5062932;28;20084;-69
2023/06/09 10:23:16;;;;;;;6.10;5.30;;;;;;;24.67;28.04;153478.91;5062794;28;20033;-68
2023/06/09 10:25:42;;;;;;;6.88;5.25;;;;;;;24.69;28.62;153485.38;5062441;28;20021;-69
2023/06/09 10:28:10;;;;;;;9.30;4.63;;;;;;;24.91;29.58;153541.09;5062773;28;20024;-68
2023/06/09 10:30:37;;;;;;;6.35;4.80;;;;;;;24.79;28.58;153511.28;5062621;28;20025;-67
2023/06/09 10:33:12;;;;;;;6.78;5.03;;;;;;;24.97;28.44;153555.34;5062785;28;20037;-68
2023/06/09 10:35:40;;;;;;;7.45;5.03;;;;;;;25.03;28.33;153570.88;5062692;28;20310;-68
2023/06/09 10:38:25;;;;;;;5.28;4.57;;;;;;;25.10;27.92;153589.03;5062381;28;20017;-69
2023/06/09 10:41:09;;;;;;;9.38;4.35;;;;;;;25.21;28.19;153616.25;5062421;28;20029;-69
2023/06/09 10:44:00;;;;;;;5.55;4.60;;;;;;;25.16;28.68;153604.53;5062506;28;20053;-69
2023/06/09 10:46:43;;;;;;;6.53;4.75;;;;;;;25.19;27.71;153611.03;5062524;28;20134;-69
2023/06/09 10:49:24;;;;;;;10.63;4.45;;;;;;;25.30;27.59;153638.25;5062293;28;20055;-68
2023/06/09 10:51:50;;;;;;;7.72;4.70;;;;;;;25.40;28.49;153664.22;5062320;28;20040;-69
2023/06/09 10:54:15;;;;;;;4.63;4.15;;;;;;;25.37;27.47;153656.44;5062084;28;20040;-66
2023/06/09 10:56:57;;;;;;;6.72;4.55;;;;;;;25.35;28.94;153649.97;5062493;28;20074;-67
2023/06/09 10:59:26;;;;;;;5.80;4.85;;;;;;;25.14;27.06;153598.09;5042427;28;20029;-68
2023/06/09 11:02:01;;;;;;;6.43;4.47;;;;;;;25.23;27.83;153621.41;5059924;28;20092;-67
2023/06/09 11:04:44;;;;;;;6.32;4.28;;;;;;;25.16;27.81;153603.28;5060996;28;20246;-66
2023/06/09 11:07:09;;;;;;;5.22;3.97;;;;;;;25.15;27.87;153600.66;5062248;28;20069;-67
2023/06/09 11:09:36;;;;;;;6.68;4.72;;;;;;;25.12;29.10;153592.91;5062266;28;20021;-66
2023/06/09 11:12:01;;;;;;;5.78;5.07;;;;;;;24.79;28.28;153510.00;5062197;28;20126;-67
2023/06/09 11:15:07;;;;;;;6.75;4.30;;;;;;;25.06;27.80;153577.38;5061363;28;20023;-67
2023/06/09 11:17:33;;;;;;;5.30;4.63;;;;;;;24.95;28.30;153551.41;5023715;28;20052;-67
2023/06/09 11:20:11;;;;;;;5.35;4.60;;;;;;;25.03;27.51;153569.59;5061948;28;20036;-67
2023/06/09 11:22:46;;;;;;;8.13;5.00;;;;;;;25.05;29.54;153576.03;5066197;28;20036;-67
2023/06/09 11:25:17;;;;;;;8.82;4.60;;;;;;;25.15;28.84;153602.00;5064863;28;20033;-67